Airfield :
LOGIN :

Register | Disclaimer

   EN    FR    IT 

 










Legend :    VFR   Marginal VFR   IFR   Intensive IFR   Very Intensive IFR
Visi :
Ceiling :
>= 8 km
>= 3000ft
5 to 8 km
1000 to 3000 ft
1500m to 5 km
500 to 1000 ft
800 to 1500m
200 to 500 ft
< 800m
< 200 ft
Symbols :   Thunderstorms  Fog  Heavy snow  Heavy precipitations  Wind > 20 kt
SIGMETs :     Misc.  Thunderstorms  Icing  Turbulence  Mountain Waves  Volcanic Ashes







- Airport Elevation : 1411 ft
- IATA code : ZHI


LSZG - Grenchen

CURRENT METAR :
  • 201150Z 22011KT 6000 -RA SCT006 BKN018 BKN050 12/12 Q1008 NOSIG

EXPIRED METARs :
  • 201120Z 22011KT 6000 -RA SCT007 BKN018 BKN055 12/12 Q1008 NOSIG
  • 201050Z 23010KT 8000 -RA SCT007 BKN016 BKN057 12/12 Q1008 NOSIG
  • 201020Z 23010KT 8000 -RA SCT007 BKN016 BKN032 12/12 Q1008 NOSIG
  • 200950Z 21010KT 6000 -RA FEW008 BKN015 BKN050 12/12 Q1007 NOSIG
  • 200920Z 22010KT 6000 -RA FEW007 SCT018 BKN031 12/12 Q1007 NOSIG

TAF TAF LSZG
Valid from the 20 at 12:00 until the 20 at 21:00 UTC


201125Z 2012/2021 23010KT 8000 -RA SCT007 BKN016 BKN057
PROB40
TEMPO 2012/2021 RA BKN014
PROB30
TEMPO 2012/2021 4500 TSRA SCT014CB
ATIS : +41 32 396 96 33
No reported NOTAMs for that airfield.



MET'MAP, your aeronautical weather chart ! - Copyright ORBIFLY December 2007 - Disclaimer

ORBIFLY MET'MAP TEAM :

Programming & Development : Alexandra Zaïnal
Concept & Development : Baudouin d'Aumeries
Co-Development & Prog : Marc-Olivier Méhu
Technical & hardware support : Manuel Goepfert

Contact : metmap@orbifly.com




SOURCES & CREDITS :

   NOAA